sensor_id;sensor_type;location;lat;lon;timestamp;P1;durP1;ratioP1;P2;durP2;ratioP2
80322;SDS011;69636;52.372;13.610;2023-04-23T19:14:18;13.50;;;11.98;;
80322;SDS011;69636;52.372;13.610;2023-04-23T19:16:44;13.35;;;11.43;;
80322;SDS011;69636;52.372;13.610;2023-04-23T19:19:11;12.95;;;11.27;;
80322;SDS011;69636;52.372;13.610;2023-04-23T19:21:37;11.85;;;10.23;;
80322;SDS011;69636;52.372;13.610;2023-04-23T19:24:04;11.90;;;10.40;;
80322;SDS011;69636;52.372;13.610;2023-04-23T19:26:30;12.85;;;10.98;;
80322;SDS011;69636;52.372;13.610;2023-04-23T19:28:58;14.55;;;12.10;;
80322;SDS011;69636;52.372;13.610;2023-04-23T19:31:24;13.07;;;11.05;;
80322;SDS011;69636;52.372;13.610;2023-04-23T19:33:50;14.35;;;13.00;;
80322;SDS011;69636;52.372;13.610;2023-04-23T19:36:16;15.10;;;13.73;;
80322;SDS011;69636;52.372;13.610;2023-04-23T19:38:42;12.30;;;10.65;;
80322;SDS011;69636;52.372;13.610;2023-04-23T19:41:08;12.10;;;10.63;;
80322;SDS011;69636;52.372;13.610;2023-04-23T19:43:34;12.40;;;11.07;;
80322;SDS011;69636;52.372;13.610;2023-04-23T19:46:02;13.30;;;10.25;;
80322;SDS011;69636;52.372;13.610;2023-04-23T19:48:28;10.85;;;9.60;;
80322;SDS011;69636;52.372;13.610;2023-04-23T19:50:54;10.60;;;8.73;;
80322;SDS011;69636;52.372;13.610;2023-04-23T19:53:20;10.48;;;9.38;;
80322;SDS011;69636;52.372;13.610;2023-04-23T19:55:46;12.38;;;9.80;;
80322;SDS011;69636;52.372;13.610;2023-04-23T19:58:12;12.45;;;11.20;;
80322;SDS011;69636;52.372;13.610;2023-04-23T20:00:38;14.50;;;13.00;;
80322;SDS011;69636;52.372;13.610;2023-04-23T20:03:06;14.40;;;12.88;;
80322;SDS011;69636;52.372;13.610;2023-04-23T20:05:32;12.65;;;11.27;;
80322;SDS011;69636;52.372;13.610;2023-04-23T20:07:58;11.95;;;10.75;;
80322;SDS011;69636;52.372;13.610;2023-04-23T20:10:24;11.43;;;9.90;;
80322;SDS011;69636;52.372;13.610;2023-04-23T20:12:50;11.25;;;9.60;;
80322;SDS011;69636;52.372;13.610;2023-04-23T20:15:16;10.52;;;9.43;;
80322;SDS011;69636;52.372;13.610;2023-04-23T20:17:42;11.02;;;9.93;;
80322;SDS011;69636;52.372;13.610;2023-04-23T20:20:10;11.20;;;10.05;;
80322;SDS011;69636;52.372;13.610;2023-04-23T20:22:36;10.88;;;8.80;;
80322;SDS011;69636;52.372;13.610;2023-04-23T20:25:02;11.73;;;9.40;;
80322;SDS011;69636;52.372;13.610;2023-04-23T20:27:29;10.77;;;8.55;;
80322;SDS011;69636;52.372;13.610;2023-04-23T20:29:55;10.20;;;8.90;;
80322;SDS011;69636;52.372;13.610;2023-04-23T20:32:21;10.02;;;9.02;;
80322;SDS011;69636;52.372;13.610;2023-04-23T20:34:47;9.13;;;8.20;;
80322;SDS011;69636;52.372;13.610;2023-04-23T20:37:15;10.30;;;8.57;;
80322;SDS011;69636;52.372;13.610;2023-04-23T20:42:07;10.73;;;7.75;;
80322;SDS011;69636;52.372;13.610;2023-04-23T20:44:34;11.27;;;9.30;;
80322;SDS011;69636;52.372;13.610;2023-04-23T20:47:00;13.82;;;11.88;;
80322;SDS011;69636;52.372;13.610;2023-04-23T20:49:26;16.25;;;10.85;;
80322;SDS011;69636;52.372;13.610;2023-04-23T20:51:52;12.68;;;11.00;;
80322;SDS011;69636;52.372;13.610;2023-04-23T20:54:19;18.48;;;14.27;;
80322;SDS011;69636;52.372;13.610;2023-04-23T20:56:46;20.65;;;18.48;;
80322;SDS011;69636;52.372;13.610;2023-04-23T20:59:12;22.42;;;18.80;;
80322;SDS011;69636;52.372;13.610;2023-04-23T21:01:38;18.20;;;16.40;;
80322;SDS011;69636;52.372;13.610;2023-04-23T21:04:04;17.05;;;15.25;;
80322;SDS011;69636;52.372;13.610;2023-04-23T21:06:30;13.82;;;12.43;;
80322;SDS011;69636;52.372;13.610;2023-04-23T21:08:56;12.38;;;11.10;;
80322;SDS011;69636;52.372;13.610;2023-04-23T21:11:24;10.35;;;9.27;;
80322;SDS011;69636;52.372;13.610;2023-04-23T21:13:50;11.13;;;9.45;;
80322;SDS011;69636;52.372;13.610;2023-04-23T21:16:16;12.02;;;10.18;;
80322;SDS011;69636;52.372;13.610;2023-04-23T21:18:42;12.60;;;9.65;;
80322;SDS011;69636;52.372;13.610;2023-04-23T21:21:08;14.18;;;11.63;;
80322;SDS011;69636;52.372;13.610;2023-04-23T21:23:34;12.32;;;11.13;;
80322;SDS011;69636;52.372;13.610;2023-04-23T21:26:01;12.25;;;9.48;;
80322;SDS011;69636;52.372;13.610;2023-04-23T21:28:28;10.52;;;8.82;;
80322;SDS011;69636;52.372;13.610;2023-04-23T21:33:22;9.32;;;7.20;;
80322;SDS011;69636;52.372;13.610;2023-04-23T21:35:50;9.32;;;8.05;;
80322;SDS011;69636;52.372;13.610;2023-04-23T21:38:17;9.85;;;7.95;;
80322;SDS011;69636;52.372;13.610;2023-04-23T21:40:44;8.93;;;8.02;;
80322;SDS011;69636;52.372;13.610;2023-04-23T21:43:10;10.70;;;9.30;;
80322;SDS011;69636;52.372;13.610;2023-04-23T21:45:38;9.15;;;7.95;;
80322;SDS011;69636;52.372;13.610;2023-04-23T21:48:04;7.32;;;6.55;;
80322;SDS011;69636;52.372;13.610;2023-04-23T21:50:30;7.88;;;6.40;;
80322;SDS011;69636;52.372;13.610;2023-04-23T21:52:57;7.20;;;6.50;;
80322;SDS011;69636;52.372;13.610;2023-04-23T21:55:24;8.73;;;7.80;;
80322;SDS011;69636;52.372;13.610;2023-04-23T21:57:52;9.48;;;8.48;;
80322;SDS011;69636;52.372;13.610;2023-04-23T22:00:19;8.30;;;7.15;;
80322;SDS011;69636;52.372;13.610;2023-04-23T22:02:48;9.13;;;7.05;;
80322;SDS011;69636;52.372;13.610;2023-04-23T22:05:15;9.43;;;8.52;;
80322;SDS011;69636;52.372;13.610;2023-04-23T22:07:42;6.93;;;6.13;;
80322;SDS011;69636;52.372;13.610;2023-04-23T22:10:09;7.03;;;6.32;;
80322;SDS011;69636;52.372;13.610;2023-04-23T22:12:36;9.30;;;6.75;;
80322;SDS011;69636;52.372;13.610;2023-04-23T22:15:03;7.50;;;6.60;;
80322;SDS011;69636;52.372;13.610;2023-04-23T22:17:30;8.52;;;7.30;;
80322;SDS011;69636;52.372;13.610;2023-04-23T22:19:58;8.45;;;7.63;;
80322;SDS011;69636;52.372;13.610;2023-04-23T22:22:24;8.25;;;6.50;;
80322;SDS011;69636;52.372;13.610;2023-04-23T22:24:50;7.60;;;6.68;;
80322;SDS011;69636;52.372;13.610;2023-04-23T22:27:16;7.97;;;6.40;;
80322;SDS011;69636;52.372;13.610;2023-04-23T22:29:42;8.77;;;7.30;;
80322;SDS011;69636;52.372;13.610;2023-04-23T22:32:08;8.13;;;6.85;;
80322;SDS011;69636;52.372;13.610;2023-04-23T22:34:34;8.70;;;6.45;;
80322;SDS011;69636;52.372;13.610;2023-04-23T22:37:02;8.40;;;7.30;;
80322;SDS011;69636;52.372;13.610;2023-04-23T22:39:28;8.05;;;6.90;;
80322;SDS011;69636;52.372;13.610;2023-04-23T22:41:54;7.63;;;6.53;;
80322;SDS011;69636;52.372;13.610;2023-04-23T22:44:20;8.07;;;6.97;;
80322;SDS011;69636;52.372;13.610;2023-04-23T22:46:46;8.73;;;7.80;;
80322;SDS011;69636;52.372;13.610;2023-04-23T22:49:12;7.88;;;6.47;;
80322;SDS011;69636;52.372;13.610;2023-04-23T22:51:39;8.43;;;6.63;;
80322;SDS011;69636;52.372;13.610;2023-04-23T22:54:06;8.93;;;6.50;;
80322;SDS011;69636;52.372;13.610;2023-04-23T22:56:32;7.13;;;6.38;;
80322;SDS011;69636;52.372;13.610;2023-04-23T22:58:58;8.43;;;7.07;;
80322;SDS011;69636;52.372;13.610;2023-04-23T23:01:24;9.23;;;6.72;;
80322;SDS011;69636;52.372;13.610;2023-04-23T23:03:50;8.75;;;6.93;;
80322;SDS011;69636;52.372;13.610;2023-04-23T23:06:16;8.65;;;6.90;;
80322;SDS011;69636;52.372;13.610;2023-04-23T23:08:42;9.70;;;7.30;;
80322;SDS011;69636;52.372;13.610;2023-04-23T23:11:10;8.38;;;6.85;;
80322;SDS011;69636;52.372;13.610;2023-04-23T23:13:36;8.40;;;7.05;;
80322;SDS011;69636;52.372;13.610;2023-04-23T23:16:02;8.10;;;7.10;;
80322;SDS011;69636;52.372;13.610;2023-04-23T23:18:29;8.23;;;7.28;;
80322;SDS011;69636;52.372;13.610;2023-04-23T23:20:55;8.02;;;6.22;;
80322;SDS011;69636;52.372;13.610;2023-04-23T23:23:21;8.27;;;7.30;;
80322;SDS011;69636;52.372;13.610;2023-04-23T23:25:47;9.35;;;7.32;;
80322;SDS011;69636;52.372;13.610;2023-04-23T23:28:15;8.80;;;6.75;;
80322;SDS011;69636;52.372;13.610;2023-04-23T23:30:41;8.05;;;6.93;;
80322;SDS011;69636;52.372;13.610;2023-04-23T23:33:07;9.63;;;7.00;;
80322;SDS011;69636;52.372;13.610;2023-04-23T23:35:33;8.13;;;6.43;;
80322;SDS011;69636;52.372;13.610;2023-04-23T23:37:59;8.57;;;6.80;;
80322;SDS011;69636;52.372;13.610;2023-04-23T23:40:25;9.35;;;7.15;;
80322;SDS011;69636;52.372;13.610;2023-04-23T23:42:51;7.90;;;7.05;;
80322;SDS011;69636;52.372;13.610;2023-04-23T23:45:19;9.60;;;7.60;;
80322;SDS011;69636;52.372;13.610;2023-04-23T23:47:45;8.98;;;7.03;;
80322;SDS011;69636;52.372;13.610;2023-04-23T23:50:11;8.93;;;7.35;;
80322;SDS011;69636;52.372;13.610;2023-04-23T23:52:37;9.38;;;7.35;;
80322;SDS011;69636;52.372;13.610;2023-04-23T23:55:03;8.52;;;7.47;;
80322;SDS011;69636;52.372;13.610;2023-04-23T23:57:30;7.72;;;6.78;;
80322;SDS011;69636;52.372;13.610;2023-04-23T23:59:56;8.70;;;7.80;;
